sensor_id;sensor_type;location;lat;lon;timestamp;temperature;humidity
50162;DHT22;36061;48.116;11.612;2023-08-06T00:00:15;15.60;99.90
50162;DHT22;36061;48.116;11.612;2023-08-06T00:02:44;15.60;99.90
50162;DHT22;36061;48.116;11.612;2023-08-06T00:05:11;15.50;99.90
50162;DHT22;36061;48.116;11.612;2023-08-06T00:07:38;15.50;99.90
50162;DHT22;36061;48.116;11.612;2023-08-06T00:10:06;15.50;99.90
50162;DHT22;36061;48.116;11.612;2023-08-06T00:12:35;15.40;99.90
50162;DHT22;36061;48.116;11.612;2023-08-06T00:15:02;15.40;99.90
50162;DHT22;36061;48.116;11.612;2023-08-06T00:17:30;15.40;99.90
50162;DHT22;36061;48.116;11.612;2023-08-06T00:19:57;15.40;99.90
50162;DHT22;36061;48.116;11.612;2023-08-06T00:22:24;15.30;99.90
50162;DHT22;36061;48.116;11.612;2023-08-06T00:24:51;15.30;99.90
50162;DHT22;36061;48.116;11.612;2023-08-06T00:27:18;15.20;99.90
50162;DHT22;36061;48.116;11.612;2023-08-06T00:29:47;15.20;99.90
50162;DHT22;36061;48.116;11.612;2023-08-06T00:32:14;15.20;99.90
50162;DHT22;36061;48.116;11.612;2023-08-06T00:34:42;15.10;99.90
50162;DHT22;36061;48.116;11.612;2023-08-06T00:37:09;15.10;99.90
50162;DHT22;36061;48.116;11.612;2023-08-06T00:39:36;15.10;99.90
50162;DHT22;36061;48.116;11.612;2023-08-06T00:42:05;15.00;99.90
50162;DHT22;36061;48.116;11.612;2023-08-06T00:44:32;15.00;99.90
50162;DHT22;36061;48.116;11.612;2023-08-06T00:47:02;14.90;99.90
50162;DHT22;36061;48.116;11.612;2023-08-06T00:49:29;14.90;99.90
50162;DHT22;36061;48.116;11.612;2023-08-06T00:51:58;14.80;99.90
50162;DHT22;36061;48.116;11.612;2023-08-06T00:54:25;14.80;99.90
50162;DHT22;36061;48.116;11.612;2023-08-06T00:56:54;14.70;99.90
50162;DHT22;36061;48.116;11.612;2023-08-06T00:59:24;14.70;99.90
50162;DHT22;36061;48.116;11.612;2023-08-06T01:01:51;14.70;99.90
50162;DHT22;36061;48.116;11.612;2023-08-06T01:04:22;14.70;99.90
50162;DHT22;36061;48.116;11.612;2023-08-06T01:06:56;14.60;99.90
50162;DHT22;36061;48.116;11.612;2023-08-06T01:09:43;14.60;99.90
50162;DHT22;36061;48.116;11.612;2023-08-06T01:12:21;14.60;99.90
50162;DHT22;36061;48.116;11.612;2023-08-06T01:14:54;14.50;99.90
50162;DHT22;36061;48.116;11.612;2023-08-06T01:17:24;14.40;99.90
50162;DHT22;36061;48.116;11.612;2023-08-06T01:19:53;14.40;99.90
50162;DHT22;36061;48.116;11.612;2023-08-06T01:22:22;14.30;99.90
50162;DHT22;36061;48.116;11.612;2023-08-06T01:24:50;14.30;99.90
50162;DHT22;36061;48.116;11.612;2023-08-06T01:27:24;14.30;99.90
50162;DHT22;36061;48.116;11.612;2023-08-06T01:30:00;14.30;99.90
50162;DHT22;36061;48.116;11.612;2023-08-06T01:32:32;14.30;99.90
50162;DHT22;36061;48.116;11.612;2023-08-06T01:35:02;14.40;99.90
50162;DHT22;36061;48.116;11.612;2023-08-06T01:37:32;14.40;99.90
50162;DHT22;36061;48.116;11.612;2023-08-06T01:40:06;14.30;99.90
50162;DHT22;36061;48.116;11.612;2023-08-06T01:42:34;14.30;99.90
50162;DHT22;36061;48.116;11.612;2023-08-06T01:45:01;14.30;99.90
50162;DHT22;36061;48.116;11.612;2023-08-06T01:47:28;14.30;99.90
50162;DHT22;36061;48.116;11.612;2023-08-06T01:49:56;14.40;99.90
50162;DHT22;36061;48.116;11.612;2023-08-06T01:52:23;14.40;99.90
50162;DHT22;36061;48.116;11.612;2023-08-06T01:54:51;14.40;99.90
50162;DHT22;36061;48.116;11.612;2023-08-06T01:57:19;14.40;99.90
50162;DHT22;36061;48.116;11.612;2023-08-06T01:59:46;14.40;99.90
50162;DHT22;36061;48.116;11.612;2023-08-06T02:02:13;14.30;99.90
50162;DHT22;36061;48.116;11.612;2023-08-06T02:04:40;14.30;99.90
50162;DHT22;36061;48.116;11.612;2023-08-06T02:07:07;14.20;99.90
50162;DHT22;36061;48.116;11.612;2023-08-06T02:09:35;14.30;99.90
50162;DHT22;36061;48.116;11.612;2023-08-06T02:12:04;14.30;99.90
50162;DHT22;36061;48.116;11.612;2023-08-06T02:14:32;14.20;99.90
50162;DHT22;36061;48.116;11.612;2023-08-06T02:16:59;14.30;99.90
50162;DHT22;36061;48.116;11.612;2023-08-06T02:19:27;14.20;99.90
50162;DHT22;36061;48.116;11.612;2023-08-06T02:21:54;14.20;99.90
50162;DHT22;36061;48.116;11.612;2023-08-06T02:24:21;14.30;99.90
50162;DHT22;36061;48.116;11.612;2023-08-06T02:26:48;14.20;99.90
50162;DHT22;36061;48.116;11.612;2023-08-06T02:29:18;14.20;99.90
50162;DHT22;36061;48.116;11.612;2023-08-06T02:31:45;14.30;99.90
50162;DHT22;36061;48.116;11.612;2023-08-06T02:34:13;14.20;99.90
50162;DHT22;36061;48.116;11.612;2023-08-06T02:36:40;14.20;99.90
50162;DHT22;36061;48.116;11.612;2023-08-06T02:39:07;14.20;99.90
50162;DHT22;36061;48.116;11.612;2023-08-06T02:41:35;14.20;99.90
50162;DHT22;36061;48.116;11.612;2023-08-06T02:44:02;14.20;99.90
50162;DHT22;36061;48.116;11.612;2023-08-06T02:46:31;14.20;99.90
50162;DHT22;36061;48.116;11.612;2023-08-06T02:48:58;14.20;99.90
50162;DHT22;36061;48.116;11.612;2023-08-06T02:51:26;14.20;99.90
50162;DHT22;36061;48.116;11.612;2023-08-06T02:53:53;14.10;99.90
50162;DHT22;36061;48.116;11.612;2023-08-06T02:56:21;14.10;99.90
50162;DHT22;36061;48.116;11.612;2023-08-06T02:59:06;14.10;99.90
50162;DHT22;36061;48.116;11.612;2023-08-06T03:01:45;14.20;99.90
50162;DHT22;36061;48.116;11.612;2023-08-06T03:04:19;14.20;99.90
50162;DHT22;36061;48.116;11.612;2023-08-06T03:06:49;14.20;99.90
50162;DHT22;36061;48.116;11.612;2023-08-06T03:09:17;14.10;99.90
50162;DHT22;36061;48.116;11.612;2023-08-06T03:11:44;14.10;99.90
50162;DHT22;36061;48.116;11.612;2023-08-06T03:14:14;14.10;99.90
50162;DHT22;36061;48.116;11.612;2023-08-06T03:16:44;14.10;99.90
50162;DHT22;36061;48.116;11.612;2023-08-06T03:19:14;14.10;99.90
50162;DHT22;36061;48.116;11.612;2023-08-06T03:21:41;14.00;99.90
50162;DHT22;36061;48.116;11.612;2023-08-06T03:24:09;14.00;99.90
50162;DHT22;36061;48.116;11.612;2023-08-06T03:26:38;13.90;99.90
50162;DHT22;36061;48.116;11.612;2023-08-06T03:29:05;13.90;99.90
50162;DHT22;36061;48.116;11.612;2023-08-06T03:31:34;13.90;99.90
50162;DHT22;36061;48.116;11.612;2023-08-06T03:34:04;13.90;99.90
50162;DHT22;36061;48.116;11.612;2023-08-06T03:36:32;13.90;99.90
50162;DHT22;36061;48.116;11.612;2023-08-06T03:39:00;13.80;99.90
50162;DHT22;36061;48.116;11.612;2023-08-06T03:41:30;13.90;99.90
50162;DHT22;36061;48.116;11.612;2023-08-06T03:43:57;13.80;99.90
50162;DHT22;36061;48.116;11.612;2023-08-06T03:46:26;13.80;99.90
50162;DHT22;36061;48.116;11.612;2023-08-06T03:48:54;13.80;99.90
50162;DHT22;36061;48.116;11.612;2023-08-06T03:51:24;13.80;99.90
50162;DHT22;36061;48.116;11.612;2023-08-06T03:53:52;13.80;99.90
50162;DHT22;36061;48.116;11.612;2023-08-06T03:56:19;13.80;99.90
50162;DHT22;36061;48.116;11.612;2023-08-06T03:58:47;13.80;99.90
50162;DHT22;36061;48.116;11.612;2023-08-06T04:01:14;13.90;99.90
50162;DHT22;36061;48.116;11.612;2023-08-06T04:03:44;13.80;99.90
50162;DHT22;36061;48.116;11.612;2023-08-06T04:06:12;13.80;99.90
50162;DHT22;36061;48.116;11.612;2023-08-06T04:08:40;13.80;99.90
50162;DHT22;36061;48.116;11.612;2023-08-06T04:11:08;13.80;99.90
50162;DHT22;36061;48.116;11.612;2023-08-06T04:13:35;13.80;99.90
50162;DHT22;36061;48.116;11.612;2023-08-06T04:16:03;13.80;99.90
50162;DHT22;36061;48.116;11.612;2023-08-06T04:18:32;13.80;99.90
50162;DHT22;36061;48.116;11.612;2023-08-06T04:20:59;13.80;99.90
50162;DHT22;36061;48.116;11.612;2023-08-06T04:23:28;13.80;99.90
50162;DHT22;36061;48.116;11.612;2023-08-06T04:26:00;13.80;99.90
50162;DHT22;36061;48.116;11.612;2023-08-06T04:28:32;13.80;99.90
50162;DHT22;36061;48.116;11.612;2023-08-06T04:30:59;13.80;99.90
50162;DHT22;36061;48.116;11.612;2023-08-06T04:33:27;13.80;99.90
50162;DHT22;36061;48.116;11.612;2023-08-06T04:35:57;13.80;99.90
50162;DHT22;36061;48.116;11.612;2023-08-06T04:38:26;13.80;99.90
50162;DHT22;36061;48.116;11.612;2023-08-06T04:40:55;13.80;99.90
50162;DHT22;36061;48.116;11.612;2023-08-06T04:43:24;13.80;99.90
50162;DHT22;36061;48.116;11.612;2023-08-06T04:45:54;13.80;99.90
50162;DHT22;36061;48.116;11.612;2023-08-06T04:48:22;13.80;99.90
50162;DHT22;36061;48.116;11.612;2023-08-06T04:50:50;13.80;99.90
50162;DHT22;36061;48.116;11.612;2023-08-06T04:53:17;13.80;99.90
50162;DHT22;36061;48.116;11.612;2023-08-06T04:55:44;13.80;99.90
50162;DHT22;36061;48.116;11.612;2023-08-06T04:58:12;13.90;99.90
50162;DHT22;36061;48.116;11.612;2023-08-06T05:00:42;13.90;99.90
50162;DHT22;36061;48.116;11.612;2023-08-06T05:03:09;13.90;99.90
50162;DHT22;36061;48.116;11.612;2023-08-06T05:05:36;13.90;99.90
50162;DHT22;36061;48.116;11.612;2023-08-06T05:08:03;13.90;99.90
50162;DHT22;36061;48.116;11.612;2023-08-06T05:10:31;13.90;99.90
50162;DHT22;36061;48.116;11.612;2023-08-06T05:12:58;13.90;99.90
50162;DHT22;36061;48.116;11.612;2023-08-06T05:15:25;13.90;99.90
50162;DHT22;36061;48.116;11.612;2023-08-06T05:17:54;13.90;99.90
50162;DHT22;36061;48.116;11.612;2023-08-06T05:20:21;13.90;99.90
50162;DHT22;36061;48.116;11.612;2023-08-06T05:22:48;13.90;99.90
50162;DHT22;36061;48.116;11.612;2023-08-06T05:25:15;14.00;99.90
50162;DHT22;36061;48.116;11.612;2023-08-06T05:27:43;14.00;99.90
50162;DHT22;36061;48.116;11.612;2023-08-06T05:30:10;14.00;99.90
50162;DHT22;36061;48.116;11.612;2023-08-06T05:32:38;14.00;99.90
50162;DHT22;36061;48.116;11.612;2023-08-06T05:35:07;14.00;99.90
50162;DHT22;36061;48.116;11.612;2023-08-06T05:37:34;14.10;99.90
50162;DHT22;36061;48.116;11.612;2023-08-06T05:40:01;14.10;99.90
50162;DHT22;36061;48.116;11.612;2023-08-06T05:42:30;14.10;99.90
50162;DHT22;36061;48.116;11.612;2023-08-06T05:44:57;14.00;99.90
50162;DHT22;36061;48.116;11.612;2023-08-06T05:47:25;14.10;99.90
50162;DHT22;36061;48.116;11.612;2023-08-06T05:49:52;14.10;99.90
50162;DHT22;36061;48.116;11.612;2023-08-06T05:52:20;14.10;99.90
50162;DHT22;36061;48.116;11.612;2023-08-06T05:54:48;14.00;99.90
50162;DHT22;36061;48.116;11.612;2023-08-06T05:57:15;14.00;99.90
50162;DHT22;36061;48.116;11.612;2023-08-06T05:59:43;14.10;99.90
50162;DHT22;36061;48.116;11.612;2023-08-06T06:02:10;14.10;99.90
50162;DHT22;36061;48.116;11.612;2023-08-06T06:04:38;14.10;99.90
50162;DHT22;36061;48.116;11.612;2023-08-06T06:07:05;14.20;99.90
50162;DHT22;36061;48.116;11.612;2023-08-06T06:09:33;14.20;99.90
50162;DHT22;36061;48.116;11.612;2023-08-06T06:12:01;14.20;99.90
50162;DHT22;36061;48.116;11.612;2023-08-06T06:14:28;14.30;99.90
50162;DHT22;36061;48.116;11.612;2023-08-06T06:16:55;14.30;99.90
50162;DHT22;36061;48.116;11.612;2023-08-06T06:19:22;14.40;99.90
50162;DHT22;36061;48.116;11.612;2023-08-06T06:21:50;14.40;99.90
50162;DHT22;36061;48.116;11.612;2023-08-06T06:24:17;14.50;99.90
50162;DHT22;36061;48.116;11.612;2023-08-06T06:26:45;14.50;99.90
50162;DHT22;36061;48.116;11.612;2023-08-06T06:29:13;14.60;99.90
50162;DHT22;36061;48.116;11.612;2023-08-06T06:31:40;14.60;99.90
50162;DHT22;36061;48.116;11.612;2023-08-06T06:34:07;14.70;99.90
50162;DHT22;36061;48.116;11.612;2023-08-06T06:36:34;14.80;99.90
50162;DHT22;36061;48.116;11.612;2023-08-06T06:39:02;14.80;99.90
50162;DHT22;36061;48.116;11.612;2023-08-06T06:41:29;14.90;99.90
50162;DHT22;36061;48.116;11.612;2023-08-06T06:44:06;15.00;99.90
50162;DHT22;36061;48.116;11.612;2023-08-06T06:46:33;15.20;99.90
50162;DHT22;36061;48.116;11.612;2023-08-06T06:49:00;15.30;99.90
50162;DHT22;36061;48.116;11.612;2023-08-06T06:51:27;15.30;99.90
50162;DHT22;36061;48.116;11.612;2023-08-06T06:53:55;15.40;99.90
50162;DHT22;36061;48.116;11.612;2023-08-06T06:56:22;15.40;99.90
50162;DHT22;36061;48.116;11.612;2023-08-06T06:58:49;15.40;99.90
50162;DHT22;36061;48.116;11.612;2023-08-06T07:01:18;15.40;99.90
50162;DHT22;36061;48.116;11.612;2023-08-06T07:03:45;15.50;99.90
50162;DHT22;36061;48.116;11.612;2023-08-06T07:06:12;15.60;99.90
50162;DHT22;36061;48.116;11.612;2023-08-06T07:08:41;15.80;99.90
50162;DHT22;36061;48.116;11.612;2023-08-06T07:11:08;15.90;99.90
50162;DHT22;36061;48.116;11.612;2023-08-06T07:13:36;15.90;99.90
50162;DHT22;36061;48.116;11.612;2023-08-06T07:16:03;16.00;99.90
50162;DHT22;36061;48.116;11.612;2023-08-06T07:18:32;16.20;99.90
50162;DHT22;36061;48.116;11.612;2023-08-06T07:20:59;16.30;99.90
50162;DHT22;36061;48.116;11.612;2023-08-06T07:23:26;16.40;99.90
50162;DHT22;36061;48.116;11.612;2023-08-06T07:25:54;16.40;99.90
50162;DHT22;36061;48.116;11.612;2023-08-06T07:28:21;16.30;99.90
50162;DHT22;36061;48.116;11.612;2023-08-06T07:30:48;16.20;99.90
50162;DHT22;36061;48.116;11.612;2023-08-06T07:33:16;16.10;99.90
50162;DHT22;36061;48.116;11.612;2023-08-06T07:35:44;16.00;99.90
50162;DHT22;36061;48.116;11.612;2023-08-06T07:38:12;15.70;99.90
50162;DHT22;36061;48.116;11.612;2023-08-06T07:40:39;15.50;99.90
50162;DHT22;36061;48.116;11.612;2023-08-06T07:43:06;15.30;99.90
50162;DHT22;36061;48.116;11.612;2023-08-06T07:45:34;15.30;99.90
50162;DHT22;36061;48.116;11.612;2023-08-06T07:48:02;15.20;99.90
50162;DHT22;36061;48.116;11.612;2023-08-06T07:50:29;15.30;99.90
50162;DHT22;36061;48.116;11.612;2023-08-06T07:52:58;15.30;99.90
50162;DHT22;36061;48.116;11.612;2023-08-06T07:55:25;15.30;99.90
50162;DHT22;36061;48.116;11.612;2023-08-06T07:57:53;15.30;99.90
50162;DHT22;36061;48.116;11.612;2023-08-06T08:00:21;15.40;99.90
50162;DHT22;36061;48.116;11.612;2023-08-06T08:02:48;15.40;99.90
50162;DHT22;36061;48.116;11.612;2023-08-06T08:05:15;15.50;99.90
50162;DHT22;36061;48.116;11.612;2023-08-06T08:07:42;15.70;99.90
50162;DHT22;36061;48.116;11.612;2023-08-06T08:10:11;15.80;99.90
50162;DHT22;36061;48.116;11.612;2023-08-06T08:12:38;16.10;99.90
50162;DHT22;36061;48.116;11.612;2023-08-06T08:15:06;16.20;99.90
50162;DHT22;36061;48.116;11.612;2023-08-06T08:17:34;16.40;99.90
50162;DHT22;36061;48.116;11.612;2023-08-06T08:20:01;16.50;99.90
50162;DHT22;36061;48.116;11.612;2023-08-06T08:22:28;16.50;99.90
50162;DHT22;36061;48.116;11.612;2023-08-06T08:24:55;16.50;99.90
50162;DHT22;36061;48.116;11.612;2023-08-06T08:27:24;16.60;99.90
50162;DHT22;36061;48.116;11.612;2023-08-06T08:29:52;16.60;99.90
50162;DHT22;36061;48.116;11.612;2023-08-06T08:32:19;16.90;99.90
50162;DHT22;36061;48.116;11.612;2023-08-06T08:34:46;17.00;99.90
50162;DHT22;36061;48.116;11.612;2023-08-06T08:37:14;17.00;99.90
50162;DHT22;36061;48.116;11.612;2023-08-06T08:39:41;17.00;99.90
50162;DHT22;36061;48.116;11.612;2023-08-06T08:42:09;17.10;99.90
50162;DHT22;36061;48.116;11.612;2023-08-06T08:44:38;17.10;99.90
50162;DHT22;36061;48.116;11.612;2023-08-06T08:47:07;17.00;99.90
50162;DHT22;36061;48.116;11.612;2023-08-06T08:49:35;16.90;99.90
50162;DHT22;36061;48.116;11.612;2023-08-06T08:52:04;16.80;99.90
50162;DHT22;36061;48.116;11.612;2023-08-06T08:54:32;16.80;99.90
50162;DHT22;36061;48.116;11.612;2023-08-06T08:57:00;16.70;99.90
50162;DHT22;36061;48.116;11.612;2023-08-06T08:59:28;16.60;99.90
50162;DHT22;36061;48.116;11.612;2023-08-06T09:01:57;16.50;99.90
50162;DHT22;36061;48.116;11.612;2023-08-06T09:04:27;16.50;99.90
50162;DHT22;36061;48.116;11.612;2023-08-06T09:06:58;16.50;99.90
50162;DHT22;36061;48.116;11.612;2023-08-06T09:09:28;16.50;99.90
50162;DHT22;36061;48.116;11.612;2023-08-06T09:12:00;16.50;99.90
50162;DHT22;36061;48.116;11.612;2023-08-06T09:14:27;16.60;99.90
50162;DHT22;36061;48.116;11.612;2023-08-06T09:16:56;16.60;99.90
50162;DHT22;36061;48.116;11.612;2023-08-06T09:19:24;16.60;99.90
50162;DHT22;36061;48.116;11.612;2023-08-06T09:21:52;16.40;99.90
50162;DHT22;36061;48.116;11.612;2023-08-06T09:24:20;16.30;99.90
50162;DHT22;36061;48.116;11.612;2023-08-06T09:26:47;16.20;99.90
50162;DHT22;36061;48.116;11.612;2023-08-06T09:29:15;16.10;99.90
50162;DHT22;36061;48.116;11.612;2023-08-06T09:31:43;16.00;99.90
50162;DHT22;36061;48.116;11.612;2023-08-06T09:34:14;15.90;99.90
50162;DHT22;36061;48.116;11.612;2023-08-06T09:36:42;15.90;99.90
50162;DHT22;36061;48.116;11.612;2023-08-06T09:39:16;15.90;99.90
50162;DHT22;36061;48.116;11.612;2023-08-06T09:41:44;16.00;99.90
50162;DHT22;36061;48.116;11.612;2023-08-06T09:44:17;16.10;99.90
50162;DHT22;36061;48.116;11.612;2023-08-06T09:46:48;16.10;99.90
50162;DHT22;36061;48.116;11.612;2023-08-06T09:49:18;16.10;99.90
50162;DHT22;36061;48.116;11.612;2023-08-06T09:51:46;16.10;99.90
50162;DHT22;36061;48.116;11.612;2023-08-06T09:54:17;16.10;99.90
50162;DHT22;36061;48.116;11.612;2023-08-06T09:56:45;16.10;99.90
50162;DHT22;36061;48.116;11.612;2023-08-06T09:59:12;16.10;99.90
50162;DHT22;36061;48.116;11.612;2023-08-06T10:01:41;16.10;99.90
50162;DHT22;36061;48.116;11.612;2023-08-06T10:04:09;16.00;99.90
50162;DHT22;36061;48.116;11.612;2023-08-06T10:06:39;16.10;99.90
50162;DHT22;36061;48.116;11.612;2023-08-06T10:09:06;16.10;99.90
50162;DHT22;36061;48.116;11.612;2023-08-06T10:11:36;16.00;99.90
50162;DHT22;36061;48.116;11.612;2023-08-06T10:14:08;16.00;99.90
50162;DHT22;36061;48.116;11.612;2023-08-06T10:16:37;16.00;99.90
50162;DHT22;36061;48.116;11.612;2023-08-06T10:19:07;16.00;99.90
50162;DHT22;36061;48.116;11.612;2023-08-06T10:21:39;15.90;99.90
50162;DHT22;36061;48.116;11.612;2023-08-06T10:24:07;15.90;99.90
50162;DHT22;36061;48.116;11.612;2023-08-06T10:26:36;15.80;99.90
50162;DHT22;36061;48.116;11.612;2023-08-06T10:29:37;15.90;99.90
50162;DHT22;36061;48.116;11.612;2023-08-06T10:32:04;16.10;99.90
50162;DHT22;36061;48.116;11.612;2023-08-06T10:34:57;16.20;99.90
50162;DHT22;36061;48.116;11.612;2023-08-06T10:37:35;16.40;99.90
50162;DHT22;36061;48.116;11.612;2023-08-06T10:40:03;16.60;99.90
50162;DHT22;36061;48.116;11.612;2023-08-06T10:42:33;16.60;99.90
50162;DHT22;36061;48.116;11.612;2023-08-06T10:45:16;16.60;99.90
50162;DHT22;36061;48.116;11.612;2023-08-06T10:47:44;16.50;99.90
50162;DHT22;36061;48.116;11.612;2023-08-06T10:50:12;16.60;99.90
50162;DHT22;36061;48.116;11.612;2023-08-06T10:52:44;16.30;99.90
50162;DHT22;36061;48.116;11.612;2023-08-06T10:55:12;16.30;99.90
50162;DHT22;36061;48.116;11.612;2023-08-06T10:57:40;16.30;99.90
50162;DHT22;36061;48.116;11.612;2023-08-06T11:00:08;16.30;99.90
50162;DHT22;36061;48.116;11.612;2023-08-06T11:02:38;16.30;99.90
50162;DHT22;36061;48.116;11.612;2023-08-06T11:05:07;16.30;99.90
50162;DHT22;36061;48.116;11.612;2023-08-06T11:07:35;16.40;99.90
50162;DHT22;36061;48.116;11.612;2023-08-06T11:10:05;16.50;99.90
50162;DHT22;36061;48.116;11.612;2023-08-06T11:12:33;16.50;99.90
50162;DHT22;36061;48.116;11.612;2023-08-06T11:15:01;16.50;99.90
50162;DHT22;36061;48.116;11.612;2023-08-06T11:17:32;16.50;99.90
50162;DHT22;36061;48.116;11.612;2023-08-06T11:20:00;16.60;99.90
50162;DHT22;36061;48.116;11.612;2023-08-06T11:22:27;16.60;99.90
50162;DHT22;36061;48.116;11.612;2023-08-06T11:24:55;16.60;99.90
50162;DHT22;36061;48.116;11.612;2023-08-06T11:27:26;16.50;99.90
50162;DHT22;36061;48.116;11.612;2023-08-06T11:29:53;16.40;99.90
50162;DHT22;36061;48.116;11.612;2023-08-06T11:32:21;16.30;99.90
50162;DHT22;36061;48.116;11.612;2023-08-06T11:34:48;16.20;99.90
50162;DHT22;36061;48.116;11.612;2023-08-06T11:37:15;16.20;99.90
50162;DHT22;36061;48.116;11.612;2023-08-06T11:39:47;16.20;99.90
50162;DHT22;36061;48.116;11.612;2023-08-06T11:42:15;16.40;99.90
50162;DHT22;36061;48.116;11.612;2023-08-06T11:44:43;16.30;99.90
50162;DHT22;36061;48.116;11.612;2023-08-06T11:47:16;16.30;99.90
50162;DHT22;36061;48.116;11.612;2023-08-06T11:49:45;16.20;99.90
50162;DHT22;36061;48.116;11.612;2023-08-06T11:52:15;16.20;99.90
50162;DHT22;36061;48.116;11.612;2023-08-06T11:54:45;16.20;99.90
50162;DHT22;36061;48.116;11.612;2023-08-06T11:57:12;16.20;99.90
50162;DHT22;36061;48.116;11.612;2023-08-06T11:59:40;16.30;99.90
50162;DHT22;36061;48.116;11.612;2023-08-06T12:02:11;16.40;99.90
50162;DHT22;36061;48.116;11.612;2023-08-06T12:05:01;16.40;99.90
50162;DHT22;36061;48.116;11.612;2023-08-06T12:07:31;16.50;99.90
50162;DHT22;36061;48.116;11.612;2023-08-06T12:09:59;16.50;99.90
50162;DHT22;36061;48.116;11.612;2023-08-06T12:12:26;16.50;99.90
50162;DHT22;36061;48.116;11.612;2023-08-06T12:14:54;16.50;99.90
50162;DHT22;36061;48.116;11.612;2023-08-06T12:17:23;16.50;99.90
50162;DHT22;36061;48.116;11.612;2023-08-06T12:19:51;16.60;99.90
50162;DHT22;36061;48.116;11.612;2023-08-06T12:22:18;16.60;99.90
50162;DHT22;36061;48.116;11.612;2023-08-06T12:24:46;16.50;99.90
50162;DHT22;36061;48.116;11.612;2023-08-06T12:27:14;16.50;99.90
50162;DHT22;36061;48.116;11.612;2023-08-06T12:29:43;16.40;99.90
50162;DHT22;36061;48.116;11.612;2023-08-06T12:32:10;16.40;99.90
50162;DHT22;36061;48.116;11.612;2023-08-06T12:34:40;16.30;99.90
50162;DHT22;36061;48.116;11.612;2023-08-06T12:37:07;16.30;99.90
50162;DHT22;36061;48.116;11.612;2023-08-06T12:39:35;16.20;99.90
50162;DHT22;36061;48.116;11.612;2023-08-06T12:42:03;16.20;99.90
50162;DHT22;36061;48.116;11.612;2023-08-06T12:44:31;16.10;99.90
50162;DHT22;36061;48.116;11.612;2023-08-06T12:46:59;16.10;99.90
50162;DHT22;36061;48.116;11.612;2023-08-06T12:49:26;15.90;99.90
50162;DHT22;36061;48.116;11.612;2023-08-06T12:51:56;15.90;99.90
50162;DHT22;36061;48.116;11.612;2023-08-06T12:54:26;15.80;99.90
50162;DHT22;36061;48.116;11.612;2023-08-06T12:56:53;15.60;99.90
50162;DHT22;36061;48.116;11.612;2023-08-06T12:59:20;15.40;99.90
50162;DHT22;36061;48.116;11.612;2023-08-06T13:01:48;15.40;99.90
50162;DHT22;36061;48.116;11.612;2023-08-06T13:04:15;15.30;99.90
50162;DHT22;36061;48.116;11.612;2023-08-06T13:06:42;15.40;99.90
50162;DHT22;36061;48.116;11.612;2023-08-06T13:09:11;15.50;99.90
50162;DHT22;36061;48.116;11.612;2023-08-06T13:11:39;15.60;99.90
50162;DHT22;36061;48.116;11.612;2023-08-06T13:14:07;15.70;99.90
50162;DHT22;36061;48.116;11.612;2023-08-06T13:16:35;15.60;99.90
50162;DHT22;36061;48.116;11.612;2023-08-06T13:19:02;15.60;99.90
50162;DHT22;36061;48.116;11.612;2023-08-06T13:21:32;15.70;99.90
50162;DHT22;36061;48.116;11.612;2023-08-06T13:23:59;15.80;99.90
50162;DHT22;36061;48.116;11.612;2023-08-06T13:26:29;15.80;99.90
50162;DHT22;36061;48.116;11.612;2023-08-06T13:28:57;16.00;99.90
50162;DHT22;36061;48.116;11.612;2023-08-06T13:31:25;15.90;99.90
50162;DHT22;36061;48.116;11.612;2023-08-06T13:33:52;15.70;99.90
50162;DHT22;36061;48.116;11.612;2023-08-06T13:36:21;15.50;99.90
50162;DHT22;36061;48.116;11.612;2023-08-06T13:38:48;15.30;99.90
50162;DHT22;36061;48.116;11.612;2023-08-06T13:41:16;15.20;99.90
50162;DHT22;36061;48.116;11.612;2023-08-06T13:43:44;15.10;99.90
50162;DHT22;36061;48.116;11.612;2023-08-06T13:46:12;15.10;99.90
50162;DHT22;36061;48.116;11.612;2023-08-06T13:48:44;15.10;99.90
50162;DHT22;36061;48.116;11.612;2023-08-06T13:51:12;15.20;99.90
50162;DHT22;36061;48.116;11.612;2023-08-06T13:53:40;15.20;99.90
50162;DHT22;36061;48.116;11.612;2023-08-06T13:56:09;15.20;99.90
50162;DHT22;36061;48.116;11.612;2023-08-06T13:58:37;15.20;99.90
50162;DHT22;36061;48.116;11.612;2023-08-06T14:01:06;15.30;99.90
50162;DHT22;36061;48.116;11.612;2023-08-06T14:03:37;15.20;99.90
50162;DHT22;36061;48.116;11.612;2023-08-06T14:06:05;15.10;99.90
50162;DHT22;36061;48.116;11.612;2023-08-06T14:08:32;15.10;99.90
50162;DHT22;36061;48.116;11.612;2023-08-06T14:10:59;15.00;99.90
50162;DHT22;36061;48.116;11.612;2023-08-06T14:13:26;14.80;99.90
50162;DHT22;36061;48.116;11.612;2023-08-06T14:15:53;14.70;99.90
50162;DHT22;36061;48.116;11.612;2023-08-06T14:18:22;14.60;99.90
50162;DHT22;36061;48.116;11.612;2023-08-06T14:20:49;14.60;99.90
50162;DHT22;36061;48.116;11.612;2023-08-06T14:23:16;14.60;99.90
50162;DHT22;36061;48.116;11.612;2023-08-06T14:25:44;14.60;99.90
50162;DHT22;36061;48.116;11.612;2023-08-06T14:28:11;14.60;99.90
50162;DHT22;36061;48.116;11.612;2023-08-06T14:30:38;14.60;99.90
50162;DHT22;36061;48.116;11.612;2023-08-06T14:33:05;14.60;99.90
50162;DHT22;36061;48.116;11.612;2023-08-06T14:35:34;14.50;99.90
50162;DHT22;36061;48.116;11.612;2023-08-06T14:38:01;14.50;99.90
50162;DHT22;36061;48.116;11.612;2023-08-06T14:40:28;14.50;99.90
50162;DHT22;36061;48.116;11.612;2023-08-06T14:42:59;14.30;99.90
50162;DHT22;36061;48.116;11.612;2023-08-06T14:45:27;14.20;99.90
50162;DHT22;36061;48.116;11.612;2023-08-06T14:47:54;14.00;99.90
50162;DHT22;36061;48.116;11.612;2023-08-06T14:50:22;14.00;99.90
50162;DHT22;36061;48.116;11.612;2023-08-06T14:52:51;14.10;99.90
50162;DHT22;36061;48.116;11.612;2023-08-06T14:55:23;14.00;99.90
50162;DHT22;36061;48.116;11.612;2023-08-06T14:57:51;13.90;99.90
50162;DHT22;36061;48.116;11.612;2023-08-06T15:00:18;13.90;99.90
50162;DHT22;36061;48.116;11.612;2023-08-06T15:02:46;13.90;99.90
50162;DHT22;36061;48.116;11.612;2023-08-06T15:05:13;13.90;99.90
50162;DHT22;36061;48.116;11.612;2023-08-06T15:07:41;13.70;99.90
50162;DHT22;36061;48.116;11.612;2023-08-06T15:10:10;13.90;99.90
50162;DHT22;36061;48.116;11.612;2023-08-06T15:12:37;13.80;99.90
50162;DHT22;36061;48.116;11.612;2023-08-06T15:15:07;13.80;99.90
50162;DHT22;36061;48.116;11.612;2023-08-06T15:17:34;13.80;99.90
50162;DHT22;36061;48.116;11.612;2023-08-06T15:20:02;13.70;99.90
50162;DHT22;36061;48.116;11.612;2023-08-06T15:22:29;13.80;99.90